sensor_id;sensor_type;location;lat;lon;timestamp;pressure;altitude;pressure_sealevel;temperature;humidity
71907;BME280;59781;52.090;5.030;2023-02-10T00:01:20;103509.56;;;1.85;100.00
71907;BME280;59781;52.090;5.030;2023-02-10T00:03:51;103508.41;;;1.66;100.00
71907;BME280;59781;52.090;5.030;2023-02-10T00:06:19;103498.06;;;1.57;100.00
71907;BME280;59781;52.090;5.030;2023-02-10T00:08:50;103505.75;;;1.38;100.00
71907;BME280;59781;52.090;5.030;2023-02-10T00:11:18;103504.97;;;1.34;100.00
71907;BME280;59781;52.090;5.030;2023-02-10T00:13:45;103494.06;;;1.43;100.00
71907;BME280;59781;52.090;5.030;2023-02-10T00:16:13;103503.16;;;1.64;100.00
71907;BME280;59781;52.090;5.030;2023-02-10T00:18:40;103505.16;;;1.58;100.00
71907;BME280;59781;52.090;5.030;2023-02-10T00:21:15;103500.88;;;1.52;100.00
71907;BME280;59781;52.090;5.030;2023-02-10T00:23:42;103499.25;;;1.48;100.00
71907;BME280;59781;52.090;5.030;2023-02-10T00:26:11;103502.31;;;1.34;100.00
71907;BME280;59781;52.090;5.030;2023-02-10T00:28:40;103502.38;;;1.61;100.00
71907;BME280;59781;52.090;5.030;2023-02-10T00:31:13;103503.09;;;1.66;100.00
71907;BME280;59781;52.090;5.030;2023-02-10T00:33:41;103508.91;;;1.79;100.00
71907;BME280;59781;52.090;5.030;2023-02-10T00:36:09;103506.78;;;1.62;100.00
71907;BME280;59781;52.090;5.030;2023-02-10T00:38:37;103504.88;;;1.65;100.00
71907;BME280;59781;52.090;5.030;2023-02-10T00:41:08;103503.19;;;1.91;100.00
71907;BME280;59781;52.090;5.030;2023-02-10T00:43:39;103499.53;;;1.67;100.00
71907;BME280;59781;52.090;5.030;2023-02-10T00:46:06;103500.50;;;1.64;100.00
71907;BME280;59781;52.090;5.030;2023-02-10T00:48:32;103503.97;;;1.38;100.00
71907;BME280;59781;52.090;5.030;2023-02-10T00:50:58;103502.56;;;1.55;100.00
71907;BME280;59781;52.090;5.030;2023-02-10T00:53:24;103504.34;;;1.54;100.00
71907;BME280;59781;52.090;5.030;2023-02-10T00:55:50;103500.72;;;1.85;100.00
71907;BME280;59781;52.090;5.030;2023-02-10T00:58:16;103496.03;;;1.93;100.00
71907;BME280;59781;52.090;5.030;2023-02-10T01:00:42;103503.69;;;1.76;100.00
71907;BME280;59781;52.090;5.030;2023-02-10T01:03:08;103493.28;;;1.96;100.00
71907;BME280;59781;52.090;5.030;2023-02-10T01:05:34;103495.97;;;1.94;100.00
71907;BME280;59781;52.090;5.030;2023-02-10T01:08:00;103499.09;;;2.34;100.00
71907;BME280;59781;52.090;5.030;2023-02-10T01:10:26;103502.28;;;1.92;100.00
71907;BME280;59781;52.090;5.030;2023-02-10T01:12:52;103514.84;;;2.13;100.00
71907;BME280;59781;52.090;5.030;2023-02-10T01:15:17;103516.31;;;1.97;100.00
71907;BME280;59781;52.090;5.030;2023-02-10T01:17:43;103512.84;;;1.93;100.00
71907;BME280;59781;52.090;5.030;2023-02-10T01:20:11;103517.00;;;2.02;100.00
71907;BME280;59781;52.090;5.030;2023-02-10T01:22:37;103511.97;;;1.65;100.00
71907;BME280;59781;52.090;5.030;2023-02-10T01:25:04;103516.31;;;1.69;100.00
71907;BME280;59781;52.090;5.030;2023-02-10T01:27:30;103516.78;;;1.24;100.00
71907;BME280;59781;52.090;5.030;2023-02-10T01:29:56;103526.66;;;1.19;100.00
71907;BME280;59781;52.090;5.030;2023-02-10T01:32:22;103525.81;;;1.17;100.00
71907;BME280;59781;52.090;5.030;2023-02-10T01:34:47;103529.66;;;1.07;100.00
71907;BME280;59781;52.090;5.030;2023-02-10T01:37:13;103525.09;;;0.81;100.00
71907;BME280;59781;52.090;5.030;2023-02-10T01:39:39;103522.34;;;1.15;100.00
71907;BME280;59781;52.090;5.030;2023-02-10T01:42:05;103528.97;;;1.31;100.00
71907;BME280;59781;52.090;5.030;2023-02-10T01:46:58;103530.59;;;1.35;100.00
71907;BME280;59781;52.090;5.030;2023-02-10T01:49:28;103532.00;;;1.47;100.00
71907;BME280;59781;52.090;5.030;2023-02-10T01:52:06;103539.38;;;1.37;100.00
71907;BME280;59781;52.090;5.030;2023-02-10T01:54:42;103544.84;;;1.33;100.00
71907;BME280;59781;52.090;5.030;2023-02-10T01:57:12;103533.53;;;1.26;100.00
71907;BME280;59781;52.090;5.030;2023-02-10T01:59:40;103543.22;;;0.96;100.00
71907;BME280;59781;52.090;5.030;2023-02-10T02:02:09;103529.59;;;0.79;100.00
71907;BME280;59781;52.090;5.030;2023-02-10T02:04:43;103527.31;;;0.64;100.00
71907;BME280;59781;52.090;5.030;2023-02-10T02:07:18;103528.34;;;0.58;100.00
71907;BME280;59781;52.090;5.030;2023-02-10T02:09:49;103528.97;;;0.69;100.00
71907;BME280;59781;52.090;5.030;2023-02-10T02:15:27;103533.25;;;0.73;100.00
71907;BME280;59781;52.090;5.030;2023-02-10T02:18:12;103532.75;;;0.92;100.00
71907;BME280;59781;52.090;5.030;2023-02-10T02:21:22;103533.25;;;0.41;100.00
71907;BME280;59781;52.090;5.030;2023-02-10T02:24:11;103528.28;;;0.27;100.00
71907;BME280;59781;52.090;5.030;2023-02-10T02:27:01;103527.84;;;0.76;100.00
71907;BME280;59781;52.090;5.030;2023-02-10T02:30:01;103532.00;;;0.86;100.00
71907;BME280;59781;52.090;5.030;2023-02-10T02:32:39;103537.88;;;0.98;100.00
71907;BME280;59781;52.090;5.030;2023-02-10T02:35:17;103538.75;;;0.98;100.00
71907;BME280;59781;52.090;5.030;2023-02-10T02:37:50;103543.97;;;1.01;100.00
71907;BME280;59781;52.090;5.030;2023-02-10T02:40:19;103547.25;;;1.11;100.00
71907;BME280;59781;52.090;5.030;2023-02-10T02:42:45;103548.50;;;0.98;100.00
71907;BME280;59781;52.090;5.030;2023-02-10T02:45:26;103550.31;;;0.96;100.00
71907;BME280;59781;52.090;5.030;2023-02-10T02:51:33;103556.31;;;1.33;100.00
71907;BME280;59781;52.090;5.030;2023-02-10T02:54:20;103559.00;;;1.02;100.00
71907;BME280;59781;52.090;5.030;2023-02-10T02:57:15;103557.25;;;1.32;100.00
71907;BME280;59781;52.090;5.030;2023-02-10T03:00:03;103551.97;;;1.60;100.00
71907;BME280;59781;52.090;5.030;2023-02-10T03:02:37;103544.13;;;1.56;100.00
71907;BME280;59781;52.090;5.030;2023-02-10T03:05:08;103546.72;;;1.29;100.00
71907;BME280;59781;52.090;5.030;2023-02-10T03:07:34;103543.28;;;1.55;100.00
71907;BME280;59781;52.090;5.030;2023-02-10T03:10:01;103540.66;;;1.54;100.00
71907;BME280;59781;52.090;5.030;2023-02-10T03:12:28;103543.53;;;1.46;100.00
71907;BME280;59781;52.090;5.030;2023-02-10T03:14:54;103550.28;;;1.28;100.00
71907;BME280;59781;52.090;5.030;2023-02-10T03:17:20;103554.50;;;1.35;100.00
71907;BME280;59781;52.090;5.030;2023-02-10T03:19:45;103550.56;;;1.49;100.00
71907;BME280;59781;52.090;5.030;2023-02-10T03:22:11;103543.53;;;1.48;100.00
71907;BME280;59781;52.090;5.030;2023-02-10T03:24:37;103536.63;;;1.70;100.00
71907;BME280;59781;52.090;5.030;2023-02-10T03:27:03;103538.59;;;1.34;100.00
71907;BME280;59781;52.090;5.030;2023-02-10T03:29:31;103540.94;;;1.44;100.00
71907;BME280;59781;52.090;5.030;2023-02-10T03:31:57;103546.56;;;1.63;100.00
71907;BME280;59781;52.090;5.030;2023-02-10T03:34:27;103546.78;;;1.56;100.00
71907;BME280;59781;52.090;5.030;2023-02-10T03:36:53;103553.78;;;1.30;100.00
71907;BME280;59781;52.090;5.030;2023-02-10T03:39:19;103544.03;;;1.60;100.00
71907;BME280;59781;52.090;5.030;2023-02-10T03:41:45;103553.78;;;1.30;100.00
71907;BME280;59781;52.090;5.030;2023-02-10T03:44:10;103556.22;;;1.36;100.00
71907;BME280;59781;52.090;5.030;2023-02-10T03:46:36;103552.16;;;1.25;100.00
71907;BME280;59781;52.090;5.030;2023-02-10T03:49:04;103554.41;;;1.68;100.00
71907;BME280;59781;52.090;5.030;2023-02-10T03:51:30;103554.25;;;1.13;100.00
71907;BME280;59781;52.090;5.030;2023-02-10T03:53:56;103554.53;;;1.34;100.00
71907;BME280;59781;52.090;5.030;2023-02-10T03:56:22;103554.16;;;1.48;100.00
71907;BME280;59781;52.090;5.030;2023-02-10T03:58:47;103551.13;;;1.60;100.00
71907;BME280;59781;52.090;5.030;2023-02-10T04:01:16;103543.31;;;1.24;100.00
71907;BME280;59781;52.090;5.030;2023-02-10T04:03:43;103556.09;;;1.70;100.00
71907;BME280;59781;52.090;5.030;2023-02-10T04:06:10;103547.28;;;1.40;100.00
71907;BME280;59781;52.090;5.030;2023-02-10T04:08:37;103551.13;;;1.60;99.95
71907;BME280;59781;52.090;5.030;2023-02-10T04:11:04;103554.91;;;1.22;100.00
71907;BME280;59781;52.090;5.030;2023-02-10T04:13:30;103556.75;;;1.49;100.00
71907;BME280;59781;52.090;5.030;2023-02-10T04:16:05;103558.38;;;1.24;100.00
71907;BME280;59781;52.090;5.030;2023-02-10T04:18:33;103561.59;;;1.35;100.00
71907;BME280;59781;52.090;5.030;2023-02-10T04:21:01;103563.88;;;1.47;100.00
71907;BME280;59781;52.090;5.030;2023-02-10T04:23:29;103563.13;;;1.12;100.00
71907;BME280;59781;52.090;5.030;2023-02-10T04:25:56;103561.53;;;1.36;100.00
71907;BME280;59781;52.090;5.030;2023-02-10T04:28:22;103569.41;;;1.10;100.00
71907;BME280;59781;52.090;5.030;2023-02-10T04:30:51;103569.69;;;0.99;100.00
71907;BME280;59781;52.090;5.030;2023-02-10T04:33:19;103583.28;;;1.20;100.00
71907;BME280;59781;52.090;5.030;2023-02-10T04:35:49;103581.50;;;1.20;100.00
71907;BME280;59781;52.090;5.030;2023-02-10T04:38:16;103578.00;;;1.49;100.00
71907;BME280;59781;52.090;5.030;2023-02-10T04:40:43;103570.25;;;1.41;100.00
71907;BME280;59781;52.090;5.030;2023-02-10T04:43:10;103568.06;;;1.25;100.00
71907;BME280;59781;52.090;5.030;2023-02-10T04:45:37;103566.78;;;0.76;100.00
71907;BME280;59781;52.090;5.030;2023-02-10T04:48:04;103556.75;;;1.20;100.00
71907;BME280;59781;52.090;5.030;2023-02-10T04:50:30;103550.25;;;1.30;100.00
71907;BME280;59781;52.090;5.030;2023-02-10T04:52:56;103551.69;;;1.10;100.00
71907;BME280;59781;52.090;5.030;2023-02-10T04:55:22;103547.03;;;0.86;100.00
71907;BME280;59781;52.090;5.030;2023-02-10T04:57:48;103545.84;;;1.29;100.00
71907;BME280;59781;52.090;5.030;2023-02-10T05:00:14;103547.06;;;1.17;100.00
71907;BME280;59781;52.090;5.030;2023-02-10T05:02:40;103543.16;;;0.99;100.00
71907;BME280;59781;52.090;5.030;2023-02-10T05:05:11;103558.16;;;1.00;100.00
71907;BME280;59781;52.090;5.030;2023-02-10T05:07:38;103549.22;;;1.34;100.00
71907;BME280;59781;52.090;5.030;2023-02-10T05:10:04;103557.91;;;1.09;100.00
71907;BME280;59781;52.090;5.030;2023-02-10T05:12:30;103553.69;;;1.02;100.00
71907;BME280;59781;52.090;5.030;2023-02-10T05:14:55;103545.25;;;1.18;100.00
71907;BME280;59781;52.090;5.030;2023-02-10T05:17:21;103557.59;;;1.20;100.00
71907;BME280;59781;52.090;5.030;2023-02-10T05:19:47;103546.13;;;1.20;100.00
71907;BME280;59781;52.090;5.030;2023-02-10T05:22:13;103551.94;;;1.01;100.00
71907;BME280;59781;52.090;5.030;2023-02-10T05:24:38;103549.94;;;0.77;100.00
71907;BME280;59781;52.090;5.030;2023-02-10T05:27:04;103553.72;;;1.01;100.00
71907;BME280;59781;52.090;5.030;2023-02-10T05:29:30;103560.25;;;0.89;100.00
71907;BME280;59781;52.090;5.030;2023-02-10T05:31:55;103554.97;;;0.88;100.00
71907;BME280;59781;52.090;5.030;2023-02-10T05:34:21;103558.44;;;1.22;100.00
71907;BME280;59781;52.090;5.030;2023-02-10T05:36:47;103567.66;;;1.09;100.00
71907;BME280;59781;52.090;5.030;2023-02-10T05:39:13;103560.16;;;1.23;100.00
71907;BME280;59781;52.090;5.030;2023-02-10T05:41:56;103550.50;;;1.21;100.00
71907;BME280;59781;52.090;5.030;2023-02-10T05:44:25;103548.56;;;1.26;100.00
71907;BME280;59781;52.090;5.030;2023-02-10T05:46:52;103547.03;;;1.19;100.00
71907;BME280;59781;52.090;5.030;2023-02-10T05:49:19;103551.31;;;1.23;100.00
71907;BME280;59781;52.090;5.030;2023-02-10T05:51:45;103554.84;;;0.60;100.00
71907;BME280;59781;52.090;5.030;2023-02-10T05:54:12;103545.22;;;0.88;100.00
71907;BME280;59781;52.090;5.030;2023-02-10T05:56:38;103535.63;;;1.15;100.00
71907;BME280;59781;52.090;5.030;2023-02-10T05:59:05;103540.44;;;1.32;100.00
71907;BME280;59781;52.090;5.030;2023-02-10T06:01:31;103539.59;;;1.00;100.00
71907;BME280;59781;52.090;5.030;2023-02-10T06:03:58;103545.72;;;1.02;100.00
71907;BME280;59781;52.090;5.030;2023-02-10T06:06:24;103546.22;;;1.15;100.00
71907;BME280;59781;52.090;5.030;2023-02-10T06:08:50;103562.25;;;1.12;100.00
71907;BME280;59781;52.090;5.030;2023-02-10T06:11:16;103558.59;;;1.46;100.00
71907;BME280;59781;52.090;5.030;2023-02-10T06:13:42;103560.94;;;1.27;100.00
71907;BME280;59781;52.090;5.030;2023-02-10T06:16:08;103572.13;;;1.07;100.00
71907;BME280;59781;52.090;5.030;2023-02-10T06:18:34;103573.69;;;1.14;100.00
71907;BME280;59781;52.090;5.030;2023-02-10T06:21:00;103570.81;;;1.22;100.00
71907;BME280;59781;52.090;5.030;2023-02-10T06:23:26;103569.44;;;0.76;100.00
71907;BME280;59781;52.090;5.030;2023-02-10T06:25:52;103576.66;;;0.71;100.00
71907;BME280;59781;52.090;5.030;2023-02-10T06:28:22;103580.59;;;0.54;100.00
71907;BME280;59781;52.090;5.030;2023-02-10T06:30:49;103575.94;;;0.30;100.00
71907;BME280;59781;52.090;5.030;2023-02-10T06:33:15;103586.13;;;0.45;100.00
71907;BME280;59781;52.090;5.030;2023-02-10T06:35:41;103583.03;;;0.64;100.00
71907;BME280;59781;52.090;5.030;2023-02-10T06:38:07;103589.97;;;0.34;100.00
71907;BME280;59781;52.090;5.030;2023-02-10T06:40:33;103593.63;;;0.64;100.00
71907;BME280;59781;52.090;5.030;2023-02-10T06:42:58;103585.31;;;0.43;100.00
71907;BME280;59781;52.090;5.030;2023-02-10T06:45:27;103587.97;;;0.43;100.00
71907;BME280;59781;52.090;5.030;2023-02-10T06:47:53;103585.22;;;0.46;100.00
71907;BME280;59781;52.090;5.030;2023-02-10T06:50:20;103590.69;;;0.40;100.00
71907;BME280;59781;52.090;5.030;2023-02-10T06:52:47;103585.63;;;0.31;100.00
71907;BME280;59781;52.090;5.030;2023-02-10T06:55:14;103593.44;;;0.36;100.00
71907;BME280;59781;52.090;5.030;2023-02-10T06:57:40;103595.13;;;0.40;100.00
71907;BME280;59781;52.090;5.030;2023-02-10T07:00:09;103593.31;;;0.42;100.00
71907;BME280;59781;52.090;5.030;2023-02-10T07:02:37;103585.97;;;0.85;100.00
71907;BME280;59781;52.090;5.030;2023-02-10T07:05:05;103589.50;;;0.52;100.00
71907;BME280;59781;52.090;5.030;2023-02-10T07:07:36;103590.47;;;0.49;100.00
71907;BME280;59781;52.090;5.030;2023-02-10T07:10:03;103582.19;;;0.26;100.00
71907;BME280;59781;52.090;5.030;2023-02-10T07:12:30;103593.72;;;0.61;100.00
71907;BME280;59781;52.090;5.030;2023-02-10T07:14:56;103592.84;;;0.24;100.00
71907;BME280;59781;52.090;5.030;2023-02-10T07:17:21;103607.59;;;0.35;100.00
71907;BME280;59781;52.090;5.030;2023-02-10T07:19:47;103600.16;;;0.50;100.00
71907;BME280;59781;52.090;5.030;2023-02-10T07:22:13;103596.00;;;0.39;100.00
71907;BME280;59781;52.090;5.030;2023-02-10T07:24:38;103596.34;;;0.25;100.00
71907;BME280;59781;52.090;5.030;2023-02-10T07:27:04;103596.06;;;0.37;100.00
71907;BME280;59781;52.090;5.030;2023-02-10T07:29:30;103604.59;;;0.50;100.00
71907;BME280;59781;52.090;5.030;2023-02-10T07:31:56;103612.69;;;0.79;100.00
71907;BME280;59781;52.090;5.030;2023-02-10T07:34:25;103615.19;;;0.50;100.00
71907;BME280;59781;52.090;5.030;2023-02-10T07:36:52;103631.25;;;0.78;100.00
71907;BME280;59781;52.090;5.030;2023-02-10T07:39:22;103629.66;;;0.72;100.00
71907;BME280;59781;52.090;5.030;2023-02-10T07:41:50;103631.34;;;0.75;100.00
71907;BME280;59781;52.090;5.030;2023-02-10T07:44:18;103628.41;;;0.85;100.00
71907;BME280;59781;52.090;5.030;2023-02-10T07:46:46;103632.03;;;0.83;100.00
71907;BME280;59781;52.090;5.030;2023-02-10T07:49:13;103635.09;;;0.66;100.00
71907;BME280;59781;52.090;5.030;2023-02-10T07:51:38;103637.44;;;0.78;100.00
71907;BME280;59781;52.090;5.030;2023-02-10T07:54:04;103635.31;;;0.57;100.00
71907;BME280;59781;52.090;5.030;2023-02-10T07:56:31;103634.41;;;0.60;100.00
71907;BME280;59781;52.090;5.030;2023-02-10T07:58:57;103629.97;;;0.60;100.00
71907;BME280;59781;52.090;5.030;2023-02-10T08:01:24;103628.97;;;0.64;100.00
71907;BME280;59781;52.090;5.030;2023-02-10T08:03:50;103642.97;;;0.71;100.00
71907;BME280;59781;52.090;5.030;2023-02-10T08:06:24;103640.34;;;0.69;100.00
71907;BME280;59781;52.090;5.030;2023-02-10T08:08:50;103642.16;;;0.67;100.00
71907;BME280;59781;52.090;5.030;2023-02-10T08:11:17;103642.09;;;0.33;100.00
71907;BME280;59781;52.090;5.030;2023-02-10T08:13:44;103640.47;;;0.97;100.00
71907;BME280;59781;52.090;5.030;2023-02-10T08:16:10;103649.13;;;1.38;100.00
71907;BME280;59781;52.090;5.030;2023-02-10T08:18:40;103634.59;;;1.81;100.00
71907;BME280;59781;52.090;5.030;2023-02-10T08:21:07;103639.38;;;1.69;99.66
71907;BME280;59781;52.090;5.030;2023-02-10T08:23:34;103635.31;;;1.87;98.43
71907;BME280;59781;52.090;5.030;2023-02-10T08:26:08;103632.16;;;1.73;99.27
71907;BME280;59781;52.090;5.030;2023-02-10T08:28:38;103613.84;;;2.21;97.93
71907;BME280;59781;52.090;5.030;2023-02-10T08:31:07;103627.56;;;2.36;96.60
71907;BME280;59781;52.090;5.030;2023-02-10T08:33:36;103627.66;;;2.33;96.84
71907;BME280;59781;52.090;5.030;2023-02-10T08:36:07;103626.59;;;2.65;95.87
71907;BME280;59781;52.090;5.030;2023-02-10T08:38:34;103631.00;;;2.39;96.36
71907;BME280;59781;52.090;5.030;2023-02-10T08:41:01;103630.09;;;2.40;96.02
71907;BME280;59781;52.090;5.030;2023-02-10T08:43:27;103628.63;;;3.34;92.70
71907;BME280;59781;52.090;5.030;2023-02-10T08:45:57;103620.91;;;3.73;89.62
71907;BME280;59781;52.090;5.030;2023-02-10T08:48:26;103624.38;;;3.29;91.50
71907;BME280;59781;52.090;5.030;2023-02-10T08:50:52;103618.97;;;3.30;91.94
71907;BME280;59781;52.090;5.030;2023-02-10T08:53:19;103630.38;;;3.34;90.81
71907;BME280;59781;52.090;5.030;2023-02-10T08:55:55;103627.03;;;4.21;84.80
71907;BME280;59781;52.090;5.030;2023-02-10T08:58:22;103628.66;;;3.80;88.72
71907;BME280;59781;52.090;5.030;2023-02-10T09:00:47;103630.81;;;3.93;89.33
71907;BME280;59781;52.090;5.030;2023-02-10T09:03:13;103636.25;;;4.36;86.61
71907;BME280;59781;52.090;5.030;2023-02-10T09:05:40;103637.81;;;3.72;90.13
71907;BME280;59781;52.090;5.030;2023-02-10T09:08:08;103636.19;;;3.92;88.68
71907;BME280;59781;52.090;5.030;2023-02-10T09:10:34;103641.59;;;4.78;86.32
71907;BME280;59781;52.090;5.030;2023-02-10T09:12:59;103633.19;;;4.87;84.98
71907;BME280;59781;52.090;5.030;2023-02-10T09:15:25;103652.38;;;4.97;84.99
71907;BME280;59781;52.090;5.030;2023-02-10T09:17:51;103643.31;;;5.21;83.05
71907;BME280;59781;52.090;5.030;2023-02-10T09:20:16;103639.28;;;5.31;82.11
71907;BME280;59781;52.090;5.030;2023-02-10T09:22:42;103644.91;;;5.05;82.75
71907;BME280;59781;52.090;5.030;2023-02-10T09:25:09;103650.63;;;5.36;81.48
71907;BME280;59781;52.090;5.030;2023-02-10T09:27:34;103648.59;;;4.80;84.64
71907;BME280;59781;52.090;5.030;2023-02-10T09:30:00;103647.81;;;5.39;81.75
71907;BME280;59781;52.090;5.030;2023-02-10T09:32:26;103659.25;;;5.43;81.22
71907;BME280;59781;52.090;5.030;2023-02-10T09:34:52;103660.53;;;5.73;81.51
71907;BME280;59781;52.090;5.030;2023-02-10T09:37:17;103651.72;;;5.71;80.04
71907;BME280;59781;52.090;5.030;2023-02-10T09:39:43;103657.53;;;5.80;81.08
71907;BME280;59781;52.090;5.030;2023-02-10T09:42:31;103646.34;;;5.92;79.86
71907;BME280;59781;52.090;5.030;2023-02-10T09:45:10;103648.41;;;5.46;81.90
71907;BME280;59781;52.090;5.030;2023-02-10T09:47:49;103652.53;;;5.53;81.05
71907;BME280;59781;52.090;5.030;2023-02-10T09:50:43;103657.78;;;4.95;82.96
71907;BME280;59781;52.090;5.030;2023-02-10T09:53:33;103653.03;;;4.16;85.67
71907;BME280;59781;52.090;5.030;2023-02-10T09:56:02;103648.44;;;3.97;87.40
71907;BME280;59781;52.090;5.030;2023-02-10T09:58:58;103648.50;;;3.96;88.74
71907;BME280;59781;52.090;5.030;2023-02-10T10:04:12;103652.41;;;4.75;85.59
71907;BME280;59781;52.090;5.030;2023-02-10T10:06:43;103656.50;;;4.18;88.17
71907;BME280;59781;52.090;5.030;2023-02-10T10:09:35;103662.41;;;4.48;86.11
71907;BME280;59781;52.090;5.030;2023-02-10T10:12:03;103647.13;;;5.55;84.63
71907;BME280;59781;52.090;5.030;2023-02-10T10:14:37;103655.34;;;6.08;81.08
71907;BME280;59781;52.090;5.030;2023-02-10T10:21:14;103645.59;;;6.07;78.29
71907;BME280;59781;52.090;5.030;2023-02-10T10:23:36;103637.03;;;6.90;78.72
71907;BME280;59781;52.090;5.030;2023-02-10T10:26:45;103633.94;;;6.98;76.40
71907;BME280;59781;52.090;5.030;2023-02-10T10:32:16;103631.84;;;7.37;74.04
71907;BME280;59781;52.090;5.030;2023-02-10T10:34:52;103629.00;;;8.05;71.64
71907;BME280;59781;52.090;5.030;2023-02-10T10:37:22;103616.97;;;7.32;75.38
71907;BME280;59781;52.090;5.030;2023-02-10T10:39:57;103622.59;;;7.43;73.12
71907;BME280;59781;52.090;5.030;2023-02-10T10:42:44;103631.25;;;7.81;74.78
71907;BME280;59781;52.090;5.030;2023-02-10T10:45:22;103626.16;;;8.55;72.49
71907;BME280;59781;52.090;5.030;2023-02-10T10:48:22;103626.50;;;8.18;71.13
71907;BME280;59781;52.090;5.030;2023-02-10T10:50:59;103628.66;;;7.80;72.37
71907;BME280;59781;52.090;5.030;2023-02-10T10:53:44;103627.72;;;8.12;71.20
71907;BME280;59781;52.090;5.030;2023-02-10T11:01:43;103622.06;;;8.32;72.43
71907;BME280;59781;52.090;5.030;2023-02-10T11:04:17;103613.22;;;8.62;70.64
71907;BME280;59781;52.090;5.030;2023-02-10T11:06:47;103615.22;;;8.58;70.64
71907;BME280;59781;52.090;5.030;2023-02-10T11:09:32;103617.66;;;8.16;71.65
71907;BME280;59781;52.090;5.030;2023-02-10T11:12:21;103613.09;;;8.02;71.53
71907;BME280;59781;52.090;5.030;2023-02-10T11:14:52;103607.78;;;9.08;69.35
71907;BME280;59781;52.090;5.030;2023-02-10T11:17:20;103614.38;;;9.02;69.12
71907;BME280;59781;52.090;5.030;2023-02-10T11:20:04;103614.38;;;9.02;69.62
71907;BME280;59781;52.090;5.030;2023-02-10T11:22:37;103604.31;;;9.63;67.84
71907;BME280;59781;52.090;5.030;2023-02-10T11:27:56;103592.72;;;9.48;66.61
71907;BME280;59781;52.090;5.030;2023-02-10T11:30:29;103586.34;;;9.63;67.77
71907;BME280;59781;52.090;5.030;2023-02-10T11:33:00;103586.06;;;8.97;68.18
71907;BME280;59781;52.090;5.030;2023-02-10T11:35:28;103576.63;;;9.89;66.30
71907;BME280;59781;52.090;5.030;2023-02-10T11:38:02;103575.53;;;9.65;66.21
71907;BME280;59781;52.090;5.030;2023-02-10T11:40:56;103585.31;;;9.23;67.15
71907;BME280;59781;52.090;5.030;2023-02-10T11:43:30;103584.34;;;9.24;68.20
71907;BME280;59781;52.090;5.030;2023-02-10T11:46:03;103582.63;;;9.66;67.31
71907;BME280;59781;52.090;5.030;2023-02-10T11:48:30;103581.66;;;9.67;66.39
71907;BME280;59781;52.090;5.030;2023-02-10T11:51:16;103581.06;;;9.76;65.43
71907;BME280;59781;52.090;5.030;2023-02-10T11:53:46;103586.47;;;9.76;66.71
71907;BME280;59781;52.090;5.030;2023-02-10T11:56:44;103581.34;;;10.13;65.18
71907;BME280;59781;52.090;5.030;2023-02-10T12:06:05;103560.25;;;9.65;66.87
71907;BME280;59781;52.090;5.030;2023-02-10T12:15:34;103570.63;;;9.98;66.01
71907;BME280;59781;52.090;5.030;2023-02-10T12:27:20;103572.16;;;10.02;67.80
71907;BME280;59781;52.090;5.030;2023-02-10T12:30:07;103566.94;;;10.41;63.97
71907;BME280;59781;52.090;5.030;2023-02-10T12:38:49;103550.97;;;9.84;65.99
71907;BME280;59781;52.090;5.030;2023-02-10T12:42:02;103557.41;;;10.22;65.75
71907;BME280;59781;52.090;5.030;2023-02-10T12:45:28;103549.66;;;10.30;65.24
71907;BME280;59781;52.090;5.030;2023-02-10T12:51:26;103541.38;;;10.06;64.63
71907;BME280;59781;52.090;5.030;2023-02-10T12:54:12;103553.09;;;9.78;67.23
71907;BME280;59781;52.090;5.030;2023-02-10T12:57:12;103548.25;;;9.57;67.96
71907;BME280;59781;52.090;5.030;2023-02-10T13:00:35;103539.16;;;10.13;65.52
71907;BME280;59781;52.090;5.030;2023-02-10T13:05:47;103532.00;;;10.12;64.07
71907;BME280;59781;52.090;5.030;2023-02-10T13:08:47;103529.34;;;9.85;65.56
71907;BME280;59781;52.090;5.030;2023-02-10T13:11:36;103529.41;;;10.25;65.60
71907;BME280;59781;52.090;5.030;2023-02-10T13:14:23;103522.47;;;10.60;64.37
71907;BME280;59781;52.090;5.030;2023-02-10T13:16:55;103518.41;;;10.68;63.36
71907;BME280;59781;52.090;5.030;2023-02-10T13:19:49;103499.31;;;10.96;62.55
71907;BME280;59781;52.090;5.030;2023-02-10T13:22:40;103495.66;;;10.84;63.51
71907;BME280;59781;52.090;5.030;2023-02-10T13:28:12;103495.28;;;10.51;64.79
71907;BME280;59781;52.090;5.030;2023-02-10T13:36:56;103480.50;;;10.31;66.97
71907;BME280;59781;52.090;5.030;2023-02-10T13:39:29;103478.97;;;9.87;67.77
71907;BME280;59781;52.090;5.030;2023-02-10T13:42:08;103484.72;;;9.81;67.79
71907;BME280;59781;52.090;5.030;2023-02-10T13:44:42;103470.66;;;9.63;68.34
71907;BME280;59781;52.090;5.030;2023-02-10T13:49:36;103468.16;;;9.19;71.94
71907;BME280;59781;52.090;5.030;2023-02-10T13:52:22;103472.19;;;8.83;73.42
71907;BME280;59781;52.090;5.030;2023-02-10T13:55:01;103460.19;;;9.03;72.94
71907;BME280;59781;52.090;5.030;2023-02-10T13:57:39;103463.53;;;9.21;72.30
71907;BME280;59781;52.090;5.030;2023-02-10T14:06:05;103459.06;;;9.07;74.13
71907;BME280;59781;52.090;5.030;2023-02-10T14:08:39;103459.44;;;9.01;75.05
71907;BME280;59781;52.090;5.030;2023-02-10T14:13:56;103456.28;;;8.80;76.73
71907;BME280;59781;52.090;5.030;2023-02-10T14:19:02;103456.66;;;8.88;75.34
71907;BME280;59781;52.090;5.030;2023-02-10T14:21:45;103438.59;;;8.48;77.45
71907;BME280;59781;52.090;5.030;2023-02-10T14:24:16;103439.38;;;8.50;78.37
71907;BME280;59781;52.090;5.030;2023-02-10T14:26:50;103418.94;;;8.61;77.83
71907;BME280;59781;52.090;5.030;2023-02-10T14:29:19;103429.84;;;8.44;79.10
71907;BME280;59781;52.090;5.030;2023-02-10T14:31:59;103420.47;;;8.80;77.06
71907;BME280;59781;52.090;5.030;2023-02-10T14:34:29;103422.13;;;8.68;77.69
71907;BME280;59781;52.090;5.030;2023-02-10T14:37:13;103423.28;;;8.78;77.01
71907;BME280;59781;52.090;5.030;2023-02-10T14:39:53;103425.19;;;8.62;77.32